»·PEaware :: N55NT KSNA-KCRQ

N55NT :: KSNA-KCRQ

FLIGHT INFORMATION

Flight Status: Arrived
Operator: Privately registered:
United States
More flights under this callsign
Pilot: Craig H. (6968)
Aircraft: BEECH AIRCRAFT BARON
(BE58)
More flights by this aircraft type
Origin: KSNA John Wayne-Orange Co
United States
Destination: KCRQ McClellan-Palomar
United States
More flights between these airports :: More routes between these airports
Route: V23 OCN
File this flight plan on PilotEdge
Remarks: CSTP30
Altitude:
(Current/Filed)
5,000ft
Speed:
(Current/Filed)
185kts
Departed: 17-Jul-20 12:19 PM
Arrived: 17-Jul-20 12:51 PM
Distance/Time
Traveled:
44nm/0:32
Distance/Time
To Go:
Arrived

Flight Plot

Page will automatically refresh every two minutes.


Map Options




Map Legend


Flown Route
Filed Route
Departure Airport
Arrival Airport
Navaid (VOR, NDB)
Fix

Horizontal Profiles

Position Reports

Time Latitude Longitude Heading Altitude Ground
Speed
17-Jul-20 12:01 33.665945 -117.872888 41 59ft 0kts
17-Jul-20 12:02 33.665945 -117.872888 41 59ft 0kts
17-Jul-20 12:03 33.665945 -117.872888 41 59ft 0kts
17-Jul-20 12:04 33.665945 -117.872888 41 59ft 0kts
17-Jul-20 12:05 33.665945 -117.872888 41 59ft 0kts
17-Jul-20 12:06 33.665945 -117.872888 41 59ft 0kts
17-Jul-20 12:07 33.665945 -117.872888 41 59ft 0kts
17-Jul-20 12:08 33.665945 -117.872888 41 59ft 0kts
17-Jul-20 12:09 33.665945 -117.872888 41 59ft 0kts
17-Jul-20 12:10 33.665945 -117.872888 41 59ft 0kts
17-Jul-20 12:11 33.665945 -117.872888 41 59ft 0kts
17-Jul-20 12:12 33.666122 -117.873051 309 59ft 2kts
17-Jul-20 12:13 33.668568 -117.871515 40 59ft 15kts
17-Jul-20 12:14 33.671819 -117.868325 24 59ft 15kts
17-Jul-20 12:15 33.674831 -117.866640 27 59ft 13kts
17-Jul-20 12:16 33.678710 -117.864168 28 59ft 13kts
17-Jul-20 12:17 33.680032 -117.863803 300 59ft 4kts
17-Jul-20 12:18 33.671460 -117.869714 210 339ft 94kts
17-Jul-20 12:19 33.638170 -117.876848 184 1455ft 141kts
17-Jul-20 12:21 33.599648 -117.879659 185 2667ft 135kts
17-Jul-20 12:22 33.572116 -117.859342 112 3951ft 133kts
17-Jul-20 12:23 33.562369 -117.817197 110 5005ft 142kts
17-Jul-20 12:24 33.537789 -117.768452 134 5015ft 188kts
17-Jul-20 12:25 33.500911 -117.721965 138 5011ft 194kts
17-Jul-20 12:26 33.462317 -117.676393 138 5010ft 196kts
17-Jul-20 12:27 33.423245 -117.630678 138 5010ft 197kts
17-Jul-20 12:28 33.384413 -117.585231 138 5212ft 189kts
17-Jul-20 12:29 33.346319 -117.540742 138 5312ft 195kts
17-Jul-20 12:30 33.307184 -117.495106 138 5312ft 197kts
17-Jul-20 12:31 33.267925 -117.449395 138 5311ft 197kts
17-Jul-20 12:32 33.238307 -117.394607 103 5113ft 210kts
17-Jul-20 12:33 33.230490 -117.330439 101 5004ft 176kts
17-Jul-20 12:34 33.223862 -117.274540 101 5164ft 164kts
17-Jul-20 12:35 33.225975 -117.220091 67 5316ft 178kts
17-Jul-20 12:36 33.249484 -117.164820 64 5306ft 191kts
17-Jul-20 12:36 33.269982 -117.117516 63 5301ft 193kts
17-Jul-20 12:38 33.298892 -117.050839 64 5306ft 194kts
17-Jul-20 12:38 33.303894 -116.998900 106 5309ft 190kts
17-Jul-20 12:39 33.274675 -116.949377 151 5319ft 182kts
17-Jul-20 12:41 33.219385 -116.940236 199 5322ft 173kts
17-Jul-20 12:41 33.186087 -116.967029 231 4832ft 174kts
17-Jul-20 12:42 33.170637 -117.017392 256 4295ft 150kts
17-Jul-20 12:43 33.163043 -117.063431 256 3603ft 134kts
17-Jul-20 12:44 33.156269 -117.105637 257 3095ft 115kts
17-Jul-20 12:45 33.149851 -117.145257 258 2595ft 111kts
17-Jul-20 12:46 33.144254 -117.180407 258 1996ft 105kts
17-Jul-20 12:47 33.138820 -117.214561 258 1403ft 102kts
17-Jul-20 12:48 33.133614 -117.246945 258 854ft 97kts
17-Jul-20 12:49 33.128599 -117.277809 257 336ft 73kts
17-Jul-20 12:50 33.126564 -117.287692 150 334ft 12kts
17-Jul-20 12:51 33.127072 -117.282307 79 334ft 16kts

Navigation Log

Ident Type
Flight plan parsing failed, navigation log unavailable